sensor_id;sensor_type;location;lat;lon;timestamp;temperature;humidity
22416;DHT22;12204;50.600;4.608;2022-09-16T00:02:51;23.40;75.30
22416;DHT22;12204;50.600;4.608;2022-09-16T00:07:56;23.40;75.40
22416;DHT22;12204;50.600;4.608;2022-09-16T00:13:00;23.40;74.50
22416;DHT22;12204;50.600;4.608;2022-09-16T00:18:04;23.50;74.50
22416;DHT22;12204;50.600;4.608;2022-09-16T00:23:09;23.50;74.80
22416;DHT22;12204;50.600;4.608;2022-09-16T00:28:13;23.40;74.70
22416;DHT22;12204;50.600;4.608;2022-09-16T00:33:17;23.40;74.70
22416;DHT22;12204;50.600;4.608;2022-09-16T00:38:23;23.40;74.20
22416;DHT22;12204;50.600;4.608;2022-09-16T00:43:27;23.40;74.80
22416;DHT22;12204;50.600;4.608;2022-09-16T00:48:32;23.40;75.40
22416;DHT22;12204;50.600;4.608;2022-09-16T00:53:41;23.40;75.60
22416;DHT22;12204;50.600;4.608;2022-09-16T00:58:50;23.40;75.80
22416;DHT22;12204;50.600;4.608;2022-09-16T01:04:01;23.40;75.80
22416;DHT22;12204;50.600;4.608;2022-09-16T01:09:08;23.40;76.00
22416;DHT22;12204;50.600;4.608;2022-09-16T01:14:13;23.40;76.50
22416;DHT22;12204;50.600;4.608;2022-09-16T01:19:48;23.40;76.30
22416;DHT22;12204;50.600;4.608;2022-09-16T01:25:18;23.40;76.30
22416;DHT22;12204;50.600;4.608;2022-09-16T01:30:49;23.40;76.30
22416;DHT22;12204;50.600;4.608;2022-09-16T01:36:23;23.40;76.40
22416;DHT22;12204;50.600;4.608;2022-09-16T01:41:46;23.40;76.30
22416;DHT22;12204;50.600;4.608;2022-09-16T01:47:07;23.40;76.50
22416;DHT22;12204;50.600;4.608;2022-09-16T01:52:21;23.40;76.30
22416;DHT22;12204;50.600;4.608;2022-09-16T01:57:32;23.40;76.30
22416;DHT22;12204;50.600;4.608;2022-09-16T02:02:40;23.40;75.80
22416;DHT22;12204;50.600;4.608;2022-09-16T02:07:49;23.40;76.00
22416;DHT22;12204;50.600;4.608;2022-09-16T02:13:00;23.40;76.30
22416;DHT22;12204;50.600;4.608;2022-09-16T02:18:09;23.40;75.50
22416;DHT22;12204;50.600;4.608;2022-09-16T02:23:19;23.50;75.90
22416;DHT22;12204;50.600;4.608;2022-09-16T02:28:29;23.40;75.80
22416;DHT22;12204;50.600;4.608;2022-09-16T02:33:39;23.40;76.20
22416;DHT22;12204;50.600;4.608;2022-09-16T02:38:49;23.40;76.00
22416;DHT22;12204;50.600;4.608;2022-09-16T02:43:55;23.40;76.20
22416;DHT22;12204;50.600;4.608;2022-09-16T02:49:07;23.40;76.00
22416;DHT22;12204;50.600;4.608;2022-09-16T02:54:21;23.40;76.30
22416;DHT22;12204;50.600;4.608;2022-09-16T02:59:29;23.40;76.40
22416;DHT22;12204;50.600;4.608;2022-09-16T03:04:34;23.40;76.50
22416;DHT22;12204;50.600;4.608;2022-09-16T03:09:42;23.40;76.50
22416;DHT22;12204;50.600;4.608;2022-09-16T03:15:02;23.40;76.30
22416;DHT22;12204;50.600;4.608;2022-09-16T03:20:39;23.40;76.30
22416;DHT22;12204;50.600;4.608;2022-09-16T03:25:54;23.40;76.30
22416;DHT22;12204;50.600;4.608;2022-09-16T03:31:05;23.40;76.70
22416;DHT22;12204;50.600;4.608;2022-09-16T03:36:15;23.40;76.50
22416;DHT22;12204;50.600;4.608;2022-09-16T03:41:21;23.40;76.50
22416;DHT22;12204;50.600;4.608;2022-09-16T03:46:26;23.40;76.60
22416;DHT22;12204;50.600;4.608;2022-09-16T03:51:31;23.40;76.40
22416;DHT22;12204;50.600;4.608;2022-09-16T03:56:35;23.40;76.40
22416;DHT22;12204;50.600;4.608;2022-09-16T04:01:39;23.40;76.20
22416;DHT22;12204;50.600;4.608;2022-09-16T04:06:44;23.40;76.70
22416;DHT22;12204;50.600;4.608;2022-09-16T04:11:47;23.40;76.50
22416;DHT22;12204;50.600;4.608;2022-09-16T04:16:51;23.40;76.40
22416;DHT22;12204;50.600;4.608;2022-09-16T04:21:57;23.40;76.00
22416;DHT22;12204;50.600;4.608;2022-09-16T04:27:02;23.30;75.90
22416;DHT22;12204;50.600;4.608;2022-09-16T04:32:06;23.40;75.80
22416;DHT22;12204;50.600;4.608;2022-09-16T04:37:11;23.40;75.80
22416;DHT22;12204;50.600;4.608;2022-09-16T04:42:14;23.40;75.70
22416;DHT22;12204;50.600;4.608;2022-09-16T04:47:18;23.40;75.70
22416;DHT22;12204;50.600;4.608;2022-09-16T04:52:23;23.40;75.80
22416;DHT22;12204;50.600;4.608;2022-09-16T04:57:29;23.40;75.60
22416;DHT22;12204;50.600;4.608;2022-09-16T05:02:33;23.40;75.50
22416;DHT22;12204;50.600;4.608;2022-09-16T05:07:38;23.40;75.30
22416;DHT22;12204;50.600;4.608;2022-09-16T05:12:42;23.40;75.40
22416;DHT22;12204;50.600;4.608;2022-09-16T05:17:50;23.40;75.30
22416;DHT22;12204;50.600;4.608;2022-09-16T05:22:55;23.30;75.70
22416;DHT22;12204;50.600;4.608;2022-09-16T05:27:59;23.40;75.10
22416;DHT22;12204;50.600;4.608;2022-09-16T05:33:02;23.30;74.90
22416;DHT22;12204;50.600;4.608;2022-09-16T05:38:07;23.30;74.90
22416;DHT22;12204;50.600;4.608;2022-09-16T05:43:11;23.30;74.90
22416;DHT22;12204;50.600;4.608;2022-09-16T05:48:15;23.30;75.20
22416;DHT22;12204;50.600;4.608;2022-09-16T05:53:20;23.30;75.90
22416;DHT22;12204;50.600;4.608;2022-09-16T05:58:24;23.30;75.00
22416;DHT22;12204;50.600;4.608;2022-09-16T06:03:29;23.30;75.00
22416;DHT22;12204;50.600;4.608;2022-09-16T06:08:35;23.30;75.00
22416;DHT22;12204;50.600;4.608;2022-09-16T06:13:39;23.30;75.00
22416;DHT22;12204;50.600;4.608;2022-09-16T06:18:43;23.30;75.00
22416;DHT22;12204;50.600;4.608;2022-09-16T06:23:48;23.30;74.80
22416;DHT22;12204;50.600;4.608;2022-09-16T06:28:52;23.30;75.10
22416;DHT22;12204;50.600;4.608;2022-09-16T06:33:57;23.30;75.10
22416;DHT22;12204;50.600;4.608;2022-09-16T06:39:02;23.30;75.10
22416;DHT22;12204;50.600;4.608;2022-09-16T06:44:06;23.30;75.50
22416;DHT22;12204;50.600;4.608;2022-09-16T06:49:10;23.30;75.30
22416;DHT22;12204;50.600;4.608;2022-09-16T06:54:15;23.30;75.30
22416;DHT22;12204;50.600;4.608;2022-09-16T06:59:19;23.30;75.30
22416;DHT22;12204;50.600;4.608;2022-09-16T07:04:23;23.30;75.30
22416;DHT22;12204;50.600;4.608;2022-09-16T07:09:28;23.20;75.40
22416;DHT22;12204;50.600;4.608;2022-09-16T07:14:33;23.20;75.10
22416;DHT22;12204;50.600;4.608;2022-09-16T07:19:37;23.20;74.80
22416;DHT22;12204;50.600;4.608;2022-09-16T07:24:44;23.20;74.90
22416;DHT22;12204;50.600;4.608;2022-09-16T07:29:48;23.20;74.70
22416;DHT22;12204;50.600;4.608;2022-09-16T07:34:51;23.20;74.70
22416;DHT22;12204;50.600;4.608;2022-09-16T07:39:57;23.20;74.70
22416;DHT22;12204;50.600;4.608;2022-09-16T07:45:01;23.20;74.70
22416;DHT22;12204;50.600;4.608;2022-09-16T07:50:06;23.20;74.70
22416;DHT22;12204;50.600;4.608;2022-09-16T07:55:12;23.20;74.60
22416;DHT22;12204;50.600;4.608;2022-09-16T08:00:18;23.20;74.50
22416;DHT22;12204;50.600;4.608;2022-09-16T08:05:22;23.20;72.60
22416;DHT22;12204;50.600;4.608;2022-09-16T08:10:27;23.10;70.60
22416;DHT22;12204;50.600;4.608;2022-09-16T08:15:33;23.00;70.30
22416;DHT22;12204;50.600;4.608;2022-09-16T08:20:37;23.00;69.10
22416;DHT22;12204;50.600;4.608;2022-09-16T08:25:42;23.00;69.30
22416;DHT22;12204;50.600;4.608;2022-09-16T08:30:46;22.90;68.90
22416;DHT22;12204;50.600;4.608;2022-09-16T08:35:58;22.90;68.80
22416;DHT22;12204;50.600;4.608;2022-09-16T08:41:15;22.90;69.00
22416;DHT22;12204;50.600;4.608;2022-09-16T08:46:43;22.90;69.30
22416;DHT22;12204;50.600;4.608;2022-09-16T08:51:54;22.80;68.90
22416;DHT22;12204;50.600;4.608;2022-09-16T08:57:01;22.90;68.60
22416;DHT22;12204;50.600;4.608;2022-09-16T09:02:26;22.80;68.00
22416;DHT22;12204;50.600;4.608;2022-09-16T09:07:50;22.80;69.00
22416;DHT22;12204;50.600;4.608;2022-09-16T09:13:12;22.80;68.70
22416;DHT22;12204;50.600;4.608;2022-09-16T09:18:38;22.80;68.60
22416;DHT22;12204;50.600;4.608;2022-09-16T09:24:01;22.70;67.90
22416;DHT22;12204;50.600;4.608;2022-09-16T09:29:38;22.70;68.90
22416;DHT22;12204;50.600;4.608;2022-09-16T09:35:03;22.70;68.30
22416;DHT22;12204;50.600;4.608;2022-09-16T09:40:21;22.60;67.70
22416;DHT22;12204;50.600;4.608;2022-09-16T09:45:35;22.60;68.00
22416;DHT22;12204;50.600;4.608;2022-09-16T09:50:44;22.60;67.60
22416;DHT22;12204;50.600;4.608;2022-09-16T09:55:55;22.60;67.80
22416;DHT22;12204;50.600;4.608;2022-09-16T10:01:04;22.60;67.70
22416;DHT22;12204;50.600;4.608;2022-09-16T10:06:09;22.60;67.70
22416;DHT22;12204;50.600;4.608;2022-09-16T10:11:16;22.60;67.40
22416;DHT22;12204;50.600;4.608;2022-09-16T10:16:28;22.90;67.00
22416;DHT22;12204;50.600;4.608;2022-09-16T10:21:40;23.10;65.80
22416;DHT22;12204;50.600;4.608;2022-09-16T10:26:47;22.90;65.60
22416;DHT22;12204;50.600;4.608;2022-09-16T10:31:52;22.80;66.20
22416;DHT22;12204;50.600;4.608;2022-09-16T10:37:02;22.80;66.90
22416;DHT22;12204;50.600;4.608;2022-09-16T10:42:15;22.70;67.10
22416;DHT22;12204;50.600;4.608;2022-09-16T10:47:25;22.70;67.00
22416;DHT22;12204;50.600;4.608;2022-09-16T10:52:31;22.60;65.50
22416;DHT22;12204;50.600;4.608;2022-09-16T10:57:44;22.60;65.60
22416;DHT22;12204;50.600;4.608;2022-09-16T11:03:04;22.70;66.00
22416;DHT22;12204;50.600;4.608;2022-09-16T11:08:28;22.50;64.60
22416;DHT22;12204;50.600;4.608;2022-09-16T11:13:49;22.50;64.30
22416;DHT22;12204;50.600;4.608;2022-09-16T11:19:06;22.40;64.20
22416;DHT22;12204;50.600;4.608;2022-09-16T11:24:25;22.30;65.50
22416;DHT22;12204;50.600;4.608;2022-09-16T11:30:09;22.50;67.20
22416;DHT22;12204;50.600;4.608;2022-09-16T11:35:34;22.60;67.40
22416;DHT22;12204;50.600;4.608;2022-09-16T11:41:16;22.70;67.40
22416;DHT22;12204;50.600;4.608;2022-09-16T11:46:32;22.70;67.10
22416;DHT22;12204;50.600;4.608;2022-09-16T11:51:55;22.70;66.70
22416;DHT22;12204;50.600;4.608;2022-09-16T11:57:10;22.70;66.60
22416;DHT22;12204;50.600;4.608;2022-09-16T12:02:22;22.70;66.30
22416;DHT22;12204;50.600;4.608;2022-09-16T12:07:34;22.80;66.40
22416;DHT22;12204;50.600;4.608;2022-09-16T12:12:44;22.70;65.80
22416;DHT22;12204;50.600;4.608;2022-09-16T12:17:54;22.70;66.00
22416;DHT22;12204;50.600;4.608;2022-09-16T12:23:05;22.60;65.40
22416;DHT22;12204;50.600;4.608;2022-09-16T12:28:16;22.60;65.40
22416;DHT22;12204;50.600;4.608;2022-09-16T12:33:30;22.60;65.20
22416;DHT22;12204;50.600;4.608;2022-09-16T12:38:38;22.60;64.80
22416;DHT22;12204;50.600;4.608;2022-09-16T12:44:00;22.50;64.30
22416;DHT22;12204;50.600;4.608;2022-09-16T12:55:49;22.40;63.80
22416;DHT22;12204;50.600;4.608;2022-09-16T13:01:13;22.50;63.60
22416;DHT22;12204;50.600;4.608;2022-09-16T13:06:24;22.50;63.60
22416;DHT22;12204;50.600;4.608;2022-09-16T13:11:30;22.50;63.50
22416;DHT22;12204;50.600;4.608;2022-09-16T13:16:55;22.50;63.50
22416;DHT22;12204;50.600;4.608;2022-09-16T13:22:14;22.50;63.40
22416;DHT22;12204;50.600;4.608;2022-09-16T13:27:31;22.50;63.40
22416;DHT22;12204;50.600;4.608;2022-09-16T13:32:39;22.50;63.40
22416;DHT22;12204;50.600;4.608;2022-09-16T13:37:45;22.50;63.40
22416;DHT22;12204;50.600;4.608;2022-09-16T13:43:02;22.50;63.40
22416;DHT22;12204;50.600;4.608;2022-09-16T13:48:16;22.50;63.40
22416;DHT22;12204;50.600;4.608;2022-09-16T13:53:25;22.50;63.30
22416;DHT22;12204;50.600;4.608;2022-09-16T13:58:37;22.50;63.50
22416;DHT22;12204;50.600;4.608;2022-09-16T14:03:51;22.50;63.80
22416;DHT22;12204;50.600;4.608;2022-09-16T14:09:04;22.50;64.20
22416;DHT22;12204;50.600;4.608;2022-09-16T14:14:31;22.50;64.30
22416;DHT22;12204;50.600;4.608;2022-09-16T14:19:50;22.40;64.00
22416;DHT22;12204;50.600;4.608;2022-09-16T14:24:58;22.40;63.90
22416;DHT22;12204;50.600;4.608;2022-09-16T14:30:16;22.40;63.70
22416;DHT22;12204;50.600;4.608;2022-09-16T14:35:23;22.40;63.50
22416;DHT22;12204;50.600;4.608;2022-09-16T14:40:28;22.40;63.50
22416;DHT22;12204;50.600;4.608;2022-09-16T14:45:35;22.30;63.20
22416;DHT22;12204;50.600;4.608;2022-09-16T14:50:42;22.40;62.80
22416;DHT22;12204;50.600;4.608;2022-09-16T14:55:48;22.40;62.80
22416;DHT22;12204;50.600;4.608;2022-09-16T15:00:56;22.40;62.20
22416;DHT22;12204;50.600;4.608;2022-09-16T15:06:06;22.40;62.10
22416;DHT22;12204;50.600;4.608;2022-09-16T15:11:15;22.40;61.40
22416;DHT22;12204;50.600;4.608;2022-09-16T15:16:45;22.50;61.10
22416;DHT22;12204;50.600;4.608;2022-09-16T15:21:50;22.50;59.90
22416;DHT22;12204;50.600;4.608;2022-09-16T15:26:55;22.50;60.00
22416;DHT22;12204;50.600;4.608;2022-09-16T15:32:14;22.40;60.50
22416;DHT22;12204;50.600;4.608;2022-09-16T15:37:31;22.40;60.40
22416;DHT22;12204;50.600;4.608;2022-09-16T15:42:36;22.40;60.30
22416;DHT22;12204;50.600;4.608;2022-09-16T15:47:52;22.40;60.50
22416;DHT22;12204;50.600;4.608;2022-09-16T15:53:02;22.30;60.60
22416;DHT22;12204;50.600;4.608;2022-09-16T15:58:13;22.30;60.90
22416;DHT22;12204;50.600;4.608;2022-09-16T16:03:26;22.30;60.90
22416;DHT22;12204;50.600;4.608;2022-09-16T16:08:39;22.40;61.10
22416;DHT22;12204;50.600;4.608;2022-09-16T16:13:46;22.40;61.00
22416;DHT22;12204;50.600;4.608;2022-09-16T16:18:53;22.40;61.00
22416;DHT22;12204;50.600;4.608;2022-09-16T16:23:58;22.40;61.00
22416;DHT22;12204;50.600;4.608;2022-09-16T16:29:03;22.50;60.40
22416;DHT22;12204;50.600;4.608;2022-09-16T16:34:08;22.40;60.30
22416;DHT22;12204;50.600;4.608;2022-09-16T16:39:11;22.40;60.10
22416;DHT22;12204;50.600;4.608;2022-09-16T16:44:15;22.40;60.10
22416;DHT22;12204;50.600;4.608;2022-09-16T16:49:20;22.40;60.10
22416;DHT22;12204;50.600;4.608;2022-09-16T16:54:25;22.30;59.90
22416;DHT22;12204;50.600;4.608;2022-09-16T16:59:29;22.40;59.90
22416;DHT22;12204;50.600;4.608;2022-09-16T17:04:34;22.40;60.10
22416;DHT22;12204;50.600;4.608;2022-09-16T17:09:38;22.60;60.80
22416;DHT22;12204;50.600;4.608;2022-09-16T17:14:42;22.60;61.10
22416;DHT22;12204;50.600;4.608;2022-09-16T17:19:47;22.60;61.70
22416;DHT22;12204;50.600;4.608;2022-09-16T17:24:50;22.50;60.60
22416;DHT22;12204;50.600;4.608;2022-09-16T17:29:54;22.40;60.60
22416;DHT22;12204;50.600;4.608;2022-09-16T17:34:59;22.30;60.40
22416;DHT22;12204;50.600;4.608;2022-09-16T17:40:03;22.30;61.80
22416;DHT22;12204;50.600;4.608;2022-09-16T17:45:08;22.40;61.40
22416;DHT22;12204;50.600;4.608;2022-09-16T17:50:14;22.40;61.70
22416;DHT22;12204;50.600;4.608;2022-09-16T17:55:23;22.40;62.40
22416;DHT22;12204;50.600;4.608;2022-09-16T18:00:27;22.40;63.70
22416;DHT22;12204;50.600;4.608;2022-09-16T18:05:33;22.40;63.90
22416;DHT22;12204;50.600;4.608;2022-09-16T18:10:38;22.40;64.20
22416;DHT22;12204;50.600;4.608;2022-09-16T18:15:42;22.50;65.10
22416;DHT22;12204;50.600;4.608;2022-09-16T18:20:51;22.60;65.20
22416;DHT22;12204;50.600;4.608;2022-09-16T18:25:56;22.60;65.50
22416;DHT22;12204;50.600;4.608;2022-09-16T18:31:01;22.70;65.70
22416;DHT22;12204;50.600;4.608;2022-09-16T18:36:08;22.80;65.80
22416;DHT22;12204;50.600;4.608;2022-09-16T18:41:15;22.80;66.10
22416;DHT22;12204;50.600;4.608;2022-09-16T18:46:23;22.80;66.40
22416;DHT22;12204;50.600;4.608;2022-09-16T18:51:32;22.90;66.80
22416;DHT22;12204;50.600;4.608;2022-09-16T18:56:38;22.90;67.20
22416;DHT22;12204;50.600;4.608;2022-09-16T19:01:43;22.90;67.90
22416;DHT22;12204;50.600;4.608;2022-09-16T19:06:52;22.90;68.00
22416;DHT22;12204;50.600;4.608;2022-09-16T19:11:57;22.90;67.70
22416;DHT22;12204;50.600;4.608;2022-09-16T19:17:03;22.90;67.90
22416;DHT22;12204;50.600;4.608;2022-09-16T19:22:08;22.90;67.90
22416;DHT22;12204;50.600;4.608;2022-09-16T19:27:12;22.90;67.90
22416;DHT22;12204;50.600;4.608;2022-09-16T19:32:16;22.90;70.30
22416;DHT22;12204;50.600;4.608;2022-09-16T19:37:21;22.90;71.30
22416;DHT22;12204;50.600;4.608;2022-09-16T19:42:25;22.90;71.20
22416;DHT22;12204;50.600;4.608;2022-09-16T19:47:29;22.90;70.00
22416;DHT22;12204;50.600;4.608;2022-09-16T19:52:34;22.90;70.70
22416;DHT22;12204;50.600;4.608;2022-09-16T19:57:38;22.90;71.00
22416;DHT22;12204;50.600;4.608;2022-09-16T20:02:42;22.80;70.90
22416;DHT22;12204;50.600;4.608;2022-09-16T20:07:48;22.80;70.70
22416;DHT22;12204;50.600;4.608;2022-09-16T20:12:51;22.80;70.70
22416;DHT22;12204;50.600;4.608;2022-09-16T20:18:00;22.80;71.50
22416;DHT22;12204;50.600;4.608;2022-09-16T20:23:05;22.80;70.60
22416;DHT22;12204;50.600;4.608;2022-09-16T20:28:08;22.80;70.60
22416;DHT22;12204;50.600;4.608;2022-09-16T20:33:12;22.80;70.50
22416;DHT22;12204;50.600;4.608;2022-09-16T20:38:17;22.70;70.40
22416;DHT22;12204;50.600;4.608;2022-09-16T20:43:20;22.70;70.50
22416;DHT22;12204;50.600;4.608;2022-09-16T20:48:24;22.70;70.50
22416;DHT22;12204;50.600;4.608;2022-09-16T20:53:29;22.70;70.70
22416;DHT22;12204;50.600;4.608;2022-09-16T20:58:33;22.70;70.70
22416;DHT22;12204;50.600;4.608;2022-09-16T21:03:37;22.70;71.60
22416;DHT22;12204;50.600;4.608;2022-09-16T21:08:43;22.70;70.80
22416;DHT22;12204;50.600;4.608;2022-09-16T21:13:51;22.70;70.80
22416;DHT22;12204;50.600;4.608;2022-09-16T21:18:58;22.70;70.80
22416;DHT22;12204;50.600;4.608;2022-09-16T21:24:06;22.70;70.90
22416;DHT22;12204;50.600;4.608;2022-09-16T21:29:11;22.70;71.50
22416;DHT22;12204;50.600;4.608;2022-09-16T21:34:18;22.70;70.90
22416;DHT22;12204;50.600;4.608;2022-09-16T21:39:24;22.70;71.00
22416;DHT22;12204;50.600;4.608;2022-09-16T21:44:28;22.60;70.80
22416;DHT22;12204;50.600;4.608;2022-09-16T21:49:32;22.70;71.00
22416;DHT22;12204;50.600;4.608;2022-09-16T21:54:37;22.80;70.90
22416;DHT22;12204;50.600;4.608;2022-09-16T21:59:40;22.80;70.90
22416;DHT22;12204;50.600;4.608;2022-09-16T22:04:44;22.80;70.90
22416;DHT22;12204;50.600;4.608;2022-09-16T22:09:49;22.80;70.90
22416;DHT22;12204;50.600;4.608;2022-09-16T22:14:56;22.80;70.70
22416;DHT22;12204;50.600;4.608;2022-09-16T22:20:03;22.70;70.90
22416;DHT22;12204;50.600;4.608;2022-09-16T22:25:10;22.70;70.90
22416;DHT22;12204;50.600;4.608;2022-09-16T22:30:13;22.70;71.00
22416;DHT22;12204;50.600;4.608;2022-09-16T22:35:17;22.70;71.70
22416;DHT22;12204;50.600;4.608;2022-09-16T22:40:22;22.70;71.10
22416;DHT22;12204;50.600;4.608;2022-09-16T22:45:26;22.70;71.10
22416;DHT22;12204;50.600;4.608;2022-09-16T22:50:29;22.70;71.20
22416;DHT22;12204;50.600;4.608;2022-09-16T22:55:34;22.70;71.30
22416;DHT22;12204;50.600;4.608;2022-09-16T23:00:38;22.70;71.20
22416;DHT22;12204;50.600;4.608;2022-09-16T23:05:41;22.70;71.40
22416;DHT22;12204;50.600;4.608;2022-09-16T23:10:46;22.70;71.60
22416;DHT22;12204;50.600;4.608;2022-09-16T23:15:49;22.70;71.70
22416;DHT22;12204;50.600;4.608;2022-09-16T23:20:56;22.70;71.70
22416;DHT22;12204;50.600;4.608;2022-09-16T23:26:03;22.70;71.90
22416;DHT22;12204;50.600;4.608;2022-09-16T23:31:11;22.70;71.90
22416;DHT22;12204;50.600;4.608;2022-09-16T23:36:17;22.60;72.10
22416;DHT22;12204;50.600;4.608;2022-09-16T23:41:23;22.60;72.20
22416;DHT22;12204;50.600;4.608;2022-09-16T23:46:28;22.60;72.10
22416;DHT22;12204;50.600;4.608;2022-09-16T23:51:32;22.70;72.10
22416;DHT22;12204;50.600;4.608;2022-09-16T23:56:38;22.60;72.20
